sensor_id;sensor_type;location;lat;lon;timestamp;temperature;humidity
44537;DHT22;30245;51.966;6.292;2023-07-31T00:02:17;20.50;66.40
44537;DHT22;30245;51.966;6.292;2023-07-31T00:04:42;20.50;66.40
44537;DHT22;30245;51.966;6.292;2023-07-31T00:07:08;20.60;66.40
44537;DHT22;30245;51.966;6.292;2023-07-31T00:09:34;20.70;66.40
44537;DHT22;30245;51.966;6.292;2023-07-31T00:11:59;20.70;66.10
44537;DHT22;30245;51.966;6.292;2023-07-31T00:14:25;20.80;66.10
44537;DHT22;30245;51.966;6.292;2023-07-31T00:16:51;20.70;66.20
44537;DHT22;30245;51.966;6.292;2023-07-31T00:19:16;20.70;66.50
44537;DHT22;30245;51.966;6.292;2023-07-31T00:21:42;20.70;66.40
44537;DHT22;30245;51.966;6.292;2023-07-31T00:24:07;20.70;66.40
44537;DHT22;30245;51.966;6.292;2023-07-31T00:26:33;20.60;66.70
44537;DHT22;30245;51.966;6.292;2023-07-31T00:28:59;20.70;66.60
44537;DHT22;30245;51.966;6.292;2023-07-31T00:31:24;20.70;66.50
44537;DHT22;30245;51.966;6.292;2023-07-31T00:33:50;20.70;66.60
44537;DHT22;30245;51.966;6.292;2023-07-31T00:36:15;20.80;66.50
44537;DHT22;30245;51.966;6.292;2023-07-31T00:38:43;20.90;66.20
44537;DHT22;30245;51.966;6.292;2023-07-31T00:41:08;20.90;66.20
44537;DHT22;30245;51.966;6.292;2023-07-31T00:43:34;20.80;66.40
44537;DHT22;30245;51.966;6.292;2023-07-31T00:46:00;20.80;66.50
44537;DHT22;30245;51.966;6.292;2023-07-31T00:48:25;20.90;66.50
44537;DHT22;30245;51.966;6.292;2023-07-31T00:50:51;21.00;66.30
44537;DHT22;30245;51.966;6.292;2023-07-31T00:53:17;21.00;66.20
44537;DHT22;30245;51.966;6.292;2023-07-31T00:55:43;21.00;66.30
44537;DHT22;30245;51.966;6.292;2023-07-31T00:58:09;21.00;66.30
44537;DHT22;30245;51.966;6.292;2023-07-31T01:00:35;21.00;66.60
44537;DHT22;30245;51.966;6.292;2023-07-31T01:03:01;20.90;66.60
44537;DHT22;30245;51.966;6.292;2023-07-31T01:05:36;20.80;66.90
44537;DHT22;30245;51.966;6.292;2023-07-31T01:08:33;20.80;67.30
44537;DHT22;30245;51.966;6.292;2023-07-31T01:11:11;20.70;67.50
44537;DHT22;30245;51.966;6.292;2023-07-31T01:13:39;20.70;67.80
44537;DHT22;30245;51.966;6.292;2023-07-31T01:16:05;20.70;67.90
44537;DHT22;30245;51.966;6.292;2023-07-31T01:18:31;20.80;68.00
44537;DHT22;30245;51.966;6.292;2023-07-31T01:21:21;20.80;68.30
44537;DHT22;30245;51.966;6.292;2023-07-31T01:26:22;20.90;68.40
44537;DHT22;30245;51.966;6.292;2023-07-31T01:31:26;21.00;69.60
44537;DHT22;30245;51.966;6.292;2023-07-31T01:33:58;21.00;69.20
44537;DHT22;30245;51.966;6.292;2023-07-31T01:36:25;21.10;69.30
44537;DHT22;30245;51.966;6.292;2023-07-31T01:38:51;21.20;69.20
44537;DHT22;30245;51.966;6.292;2023-07-31T01:41:17;21.20;69.10
44537;DHT22;30245;51.966;6.292;2023-07-31T01:43:44;21.20;69.00
44537;DHT22;30245;51.966;6.292;2023-07-31T01:46:10;21.30;69.00
44537;DHT22;30245;51.966;6.292;2023-07-31T01:48:35;21.30;69.10
44537;DHT22;30245;51.966;6.292;2023-07-31T01:51:02;21.30;69.10
44537;DHT22;30245;51.966;6.292;2023-07-31T01:53:29;21.40;69.00
44537;DHT22;30245;51.966;6.292;2023-07-31T01:55:55;21.40;69.00
44537;DHT22;30245;51.966;6.292;2023-07-31T01:58:21;21.40;69.20
44537;DHT22;30245;51.966;6.292;2023-07-31T02:00:46;21.40;69.20
44537;DHT22;30245;51.966;6.292;2023-07-31T02:03:12;21.40;69.10
44537;DHT22;30245;51.966;6.292;2023-07-31T02:05:44;21.40;69.10
44537;DHT22;30245;51.966;6.292;2023-07-31T02:08:10;21.50;69.00
44537;DHT22;30245;51.966;6.292;2023-07-31T02:10:35;21.40;68.80
44537;DHT22;30245;51.966;6.292;2023-07-31T02:13:01;21.40;68.90
44537;DHT22;30245;51.966;6.292;2023-07-31T02:15:32;21.50;68.80
44537;DHT22;30245;51.966;6.292;2023-07-31T02:17:58;21.50;68.60
44537;DHT22;30245;51.966;6.292;2023-07-31T02:20:23;21.50;68.60
44537;DHT22;30245;51.966;6.292;2023-07-31T02:22:49;21.50;68.70
44537;DHT22;30245;51.966;6.292;2023-07-31T02:25:15;21.50;68.70
44537;DHT22;30245;51.966;6.292;2023-07-31T02:27:40;21.40;68.80
44537;DHT22;30245;51.966;6.292;2023-07-31T02:30:06;21.40;68.80
44537;DHT22;30245;51.966;6.292;2023-07-31T02:32:32;21.40;68.80
44537;DHT22;30245;51.966;6.292;2023-07-31T02:34:58;21.40;68.70
44537;DHT22;30245;51.966;6.292;2023-07-31T02:37:23;21.40;68.60
44537;DHT22;30245;51.966;6.292;2023-07-31T02:39:49;21.50;68.50
44537;DHT22;30245;51.966;6.292;2023-07-31T02:42:15;21.50;68.40
44537;DHT22;30245;51.966;6.292;2023-07-31T02:44:40;21.40;68.50
44537;DHT22;30245;51.966;6.292;2023-07-31T02:47:06;21.50;68.60
44537;DHT22;30245;51.966;6.292;2023-07-31T02:49:31;21.40;68.60
44537;DHT22;30245;51.966;6.292;2023-07-31T02:51:57;21.40;68.80
44537;DHT22;30245;51.966;6.292;2023-07-31T02:54:23;21.40;68.80
44537;DHT22;30245;51.966;6.292;2023-07-31T02:56:48;21.40;68.80
44537;DHT22;30245;51.966;6.292;2023-07-31T02:59:14;21.50;68.70
44537;DHT22;30245;51.966;6.292;2023-07-31T03:01:40;21.50;68.50
44537;DHT22;30245;51.966;6.292;2023-07-31T03:04:07;21.50;68.30
44537;DHT22;30245;51.966;6.292;2023-07-31T03:06:32;21.60;68.10
44537;DHT22;30245;51.966;6.292;2023-07-31T03:08:58;21.50;68.50
44537;DHT22;30245;51.966;6.292;2023-07-31T03:11:24;21.50;68.10
44537;DHT22;30245;51.966;6.292;2023-07-31T03:13:49;21.50;68.00
44537;DHT22;30245;51.966;6.292;2023-07-31T03:16:15;21.50;67.90
44537;DHT22;30245;51.966;6.292;2023-07-31T03:18:40;21.60;67.80
44537;DHT22;30245;51.966;6.292;2023-07-31T03:21:06;21.50;67.80
44537;DHT22;30245;51.966;6.292;2023-07-31T03:23:32;21.50;67.90
44537;DHT22;30245;51.966;6.292;2023-07-31T03:26:01;21.50;67.90
44537;DHT22;30245;51.966;6.292;2023-07-31T03:28:28;21.50;67.80
44537;DHT22;30245;51.966;6.292;2023-07-31T03:30:54;21.60;67.50
44537;DHT22;30245;51.966;6.292;2023-07-31T03:33:19;21.60;67.30
44537;DHT22;30245;51.966;6.292;2023-07-31T03:35:45;21.70;67.20
44537;DHT22;30245;51.966;6.292;2023-07-31T03:38:11;21.70;67.00
44537;DHT22;30245;51.966;6.292;2023-07-31T03:40:36;21.60;67.00
44537;DHT22;30245;51.966;6.292;2023-07-31T03:43:02;21.60;67.20
44537;DHT22;30245;51.966;6.292;2023-07-31T03:45:28;21.60;67.20
44537;DHT22;30245;51.966;6.292;2023-07-31T03:47:53;21.60;67.10
44537;DHT22;30245;51.966;6.292;2023-07-31T03:50:20;21.60;67.80
44537;DHT22;30245;51.966;6.292;2023-07-31T03:52:46;21.60;67.00
44537;DHT22;30245;51.966;6.292;2023-07-31T03:55:11;21.50;66.90
44537;DHT22;30245;51.966;6.292;2023-07-31T03:57:37;21.40;67.00
44537;DHT22;30245;51.966;6.292;2023-07-31T04:00:03;21.50;67.10
44537;DHT22;30245;51.966;6.292;2023-07-31T04:02:29;21.40;67.00
44537;DHT22;30245;51.966;6.292;2023-07-31T04:04:54;21.40;66.90
44537;DHT22;30245;51.966;6.292;2023-07-31T04:07:20;21.50;66.80
44537;DHT22;30245;51.966;6.292;2023-07-31T04:09:46;21.50;66.50
44537;DHT22;30245;51.966;6.292;2023-07-31T04:12:11;21.50;66.30
44537;DHT22;30245;51.966;6.292;2023-07-31T04:14:37;21.50;66.30
44537;DHT22;30245;51.966;6.292;2023-07-31T04:17:02;21.50;66.30
44537;DHT22;30245;51.966;6.292;2023-07-31T04:19:28;21.40;66.20
44537;DHT22;30245;51.966;6.292;2023-07-31T04:21:54;21.30;66.20
44537;DHT22;30245;51.966;6.292;2023-07-31T04:24:19;21.30;66.30
44537;DHT22;30245;51.966;6.292;2023-07-31T04:26:50;21.30;66.40
44537;DHT22;30245;51.966;6.292;2023-07-31T04:29:16;21.30;66.30
44537;DHT22;30245;51.966;6.292;2023-07-31T04:31:41;21.30;66.30
44537;DHT22;30245;51.966;6.292;2023-07-31T04:34:07;21.40;66.10
44537;DHT22;30245;51.966;6.292;2023-07-31T04:36:33;21.40;65.90
44537;DHT22;30245;51.966;6.292;2023-07-31T04:38:59;21.40;66.40
44537;DHT22;30245;51.966;6.292;2023-07-31T04:41:25;21.50;65.50
44537;DHT22;30245;51.966;6.292;2023-07-31T04:43:50;21.60;65.40
44537;DHT22;30245;51.966;6.292;2023-07-31T04:46:16;21.70;65.10
44537;DHT22;30245;51.966;6.292;2023-07-31T04:48:42;21.70;65.00
44537;DHT22;30245;51.966;6.292;2023-07-31T04:51:08;21.60;65.10
44537;DHT22;30245;51.966;6.292;2023-07-31T04:53:34;21.50;65.20
44537;DHT22;30245;51.966;6.292;2023-07-31T04:56:00;21.40;65.50
44537;DHT22;30245;51.966;6.292;2023-07-31T04:58:26;21.40;65.60
44537;DHT22;30245;51.966;6.292;2023-07-31T05:00:51;21.40;65.50
44537;DHT22;30245;51.966;6.292;2023-07-31T05:03:17;21.50;65.50
44537;DHT22;30245;51.966;6.292;2023-07-31T05:05:43;21.50;65.40
44537;DHT22;30245;51.966;6.292;2023-07-31T05:08:08;21.50;65.30
44537;DHT22;30245;51.966;6.292;2023-07-31T05:10:34;21.50;65.10
44537;DHT22;30245;51.966;6.292;2023-07-31T05:13:00;21.50;65.20
44537;DHT22;30245;51.966;6.292;2023-07-31T05:15:25;21.50;65.20
44537;DHT22;30245;51.966;6.292;2023-07-31T05:17:51;21.50;65.20
44537;DHT22;30245;51.966;6.292;2023-07-31T05:20:16;21.50;65.20
44537;DHT22;30245;51.966;6.292;2023-07-31T05:22:42;21.50;65.20
44537;DHT22;30245;51.966;6.292;2023-07-31T05:25:08;21.50;65.20
44537;DHT22;30245;51.966;6.292;2023-07-31T05:27:34;21.60;65.00
44537;DHT22;30245;51.966;6.292;2023-07-31T05:29:59;21.60;64.80
44537;DHT22;30245;51.966;6.292;2023-07-31T05:32:25;21.50;65.00
44537;DHT22;30245;51.966;6.292;2023-07-31T05:34:51;21.60;65.00
44537;DHT22;30245;51.966;6.292;2023-07-31T05:37:17;21.60;65.00
44537;DHT22;30245;51.966;6.292;2023-07-31T05:39:43;21.60;64.90
44537;DHT22;30245;51.966;6.292;2023-07-31T05:42:09;21.60;65.00
44537;DHT22;30245;51.966;6.292;2023-07-31T05:44:34;21.60;64.90
44537;DHT22;30245;51.966;6.292;2023-07-31T05:47:00;21.60;65.00
44537;DHT22;30245;51.966;6.292;2023-07-31T05:49:25;21.60;65.20
44537;DHT22;30245;51.966;6.292;2023-07-31T05:51:51;21.60;65.20
44537;DHT22;30245;51.966;6.292;2023-07-31T05:54:17;21.70;65.30
44537;DHT22;30245;51.966;6.292;2023-07-31T05:56:42;21.80;65.30
44537;DHT22;30245;51.966;6.292;2023-07-31T05:59:09;21.70;65.40
44537;DHT22;30245;51.966;6.292;2023-07-31T06:01:35;21.70;65.70
44537;DHT22;30245;51.966;6.292;2023-07-31T06:04:01;21.70;65.70
44537;DHT22;30245;51.966;6.292;2023-07-31T06:06:28;21.70;65.80
44537;DHT22;30245;51.966;6.292;2023-07-31T06:08:54;21.70;66.00
44537;DHT22;30245;51.966;6.292;2023-07-31T06:11:22;21.60;66.30
44537;DHT22;30245;51.966;6.292;2023-07-31T06:13:48;21.50;66.50
44537;DHT22;30245;51.966;6.292;2023-07-31T06:16:15;21.40;66.80
44537;DHT22;30245;51.966;6.292;2023-07-31T06:18:42;21.30;67.30
44537;DHT22;30245;51.966;6.292;2023-07-31T06:21:10;21.40;67.60
44537;DHT22;30245;51.966;6.292;2023-07-31T06:23:36;21.30;67.70
44537;DHT22;30245;51.966;6.292;2023-07-31T06:26:02;21.40;67.90
44537;DHT22;30245;51.966;6.292;2023-07-31T06:28:28;21.40;67.80
44537;DHT22;30245;51.966;6.292;2023-07-31T06:30:58;21.40;67.90
44537;DHT22;30245;51.966;6.292;2023-07-31T06:33:24;21.40;68.00
44537;DHT22;30245;51.966;6.292;2023-07-31T06:35:50;21.40;68.10
44537;DHT22;30245;51.966;6.292;2023-07-31T06:38:18;21.30;68.40
44537;DHT22;30245;51.966;6.292;2023-07-31T06:40:44;21.30;68.60
44537;DHT22;30245;51.966;6.292;2023-07-31T06:43:09;21.30;68.60
44537;DHT22;30245;51.966;6.292;2023-07-31T06:45:36;21.30;68.70
44537;DHT22;30245;51.966;6.292;2023-07-31T06:48:02;21.20;68.90
44537;DHT22;30245;51.966;6.292;2023-07-31T06:50:29;21.30;69.10
44537;DHT22;30245;51.966;6.292;2023-07-31T06:52:55;21.30;69.10
44537;DHT22;30245;51.966;6.292;2023-07-31T06:55:21;21.30;69.20
44537;DHT22;30245;51.966;6.292;2023-07-31T06:57:53;21.30;69.20
44537;DHT22;30245;51.966;6.292;2023-07-31T07:00:19;21.30;69.20
44537;DHT22;30245;51.966;6.292;2023-07-31T07:02:45;21.40;69.50
44537;DHT22;30245;51.966;6.292;2023-07-31T07:05:13;21.30;69.60
44537;DHT22;30245;51.966;6.292;2023-07-31T07:07:39;21.40;69.70
44537;DHT22;30245;51.966;6.292;2023-07-31T07:10:05;21.40;69.70
44537;DHT22;30245;51.966;6.292;2023-07-31T07:12:31;21.40;69.70
44537;DHT22;30245;51.966;6.292;2023-07-31T07:14:58;21.50;69.60
44537;DHT22;30245;51.966;6.292;2023-07-31T07:17:28;21.50;69.50
44537;DHT22;30245;51.966;6.292;2023-07-31T07:19:56;21.60;69.70
44537;DHT22;30245;51.966;6.292;2023-07-31T07:22:22;21.60;69.60
44537;DHT22;30245;51.966;6.292;2023-07-31T07:24:48;21.60;69.70
44537;DHT22;30245;51.966;6.292;2023-07-31T07:27:14;21.50;69.80
44537;DHT22;30245;51.966;6.292;2023-07-31T07:29:40;21.60;70.00
44537;DHT22;30245;51.966;6.292;2023-07-31T07:32:06;21.60;70.00
44537;DHT22;30245;51.966;6.292;2023-07-31T07:34:31;21.50;70.10
44537;DHT22;30245;51.966;6.292;2023-07-31T07:36:57;21.50;70.20
44537;DHT22;30245;51.966;6.292;2023-07-31T07:39:23;21.60;70.30
44537;DHT22;30245;51.966;6.292;2023-07-31T07:41:48;21.70;70.20
44537;DHT22;30245;51.966;6.292;2023-07-31T07:44:14;21.60;70.20
44537;DHT22;30245;51.966;6.292;2023-07-31T07:46:41;21.60;70.30
44537;DHT22;30245;51.966;6.292;2023-07-31T07:49:07;21.60;70.50
44537;DHT22;30245;51.966;6.292;2023-07-31T07:51:32;21.60;70.60
44537;DHT22;30245;51.966;6.292;2023-07-31T07:53:58;21.60;70.60
44537;DHT22;30245;51.966;6.292;2023-07-31T07:56:25;21.70;70.70
44537;DHT22;30245;51.966;6.292;2023-07-31T07:58:51;21.60;70.60
44537;DHT22;30245;51.966;6.292;2023-07-31T08:01:17;21.60;70.90
44537;DHT22;30245;51.966;6.292;2023-07-31T08:03:42;21.70;70.80
44537;DHT22;30245;51.966;6.292;2023-07-31T08:06:09;21.80;70.70
44537;DHT22;30245;51.966;6.292;2023-07-31T08:08:35;21.80;70.70
44537;DHT22;30245;51.966;6.292;2023-07-31T08:11:01;21.80;70.60
44537;DHT22;30245;51.966;6.292;2023-07-31T08:13:26;21.80;70.60
44537;DHT22;30245;51.966;6.292;2023-07-31T08:15:52;21.70;70.80
44537;DHT22;30245;51.966;6.292;2023-07-31T08:18:18;21.70;70.80
44537;DHT22;30245;51.966;6.292;2023-07-31T08:20:44;21.80;70.90
44537;DHT22;30245;51.966;6.292;2023-07-31T08:23:10;21.80;70.70
44537;DHT22;30245;51.966;6.292;2023-07-31T08:25:36;21.80;70.70
44537;DHT22;30245;51.966;6.292;2023-07-31T08:28:02;21.80;70.70
44537;DHT22;30245;51.966;6.292;2023-07-31T08:30:28;21.80;70.70
44537;DHT22;30245;51.966;6.292;2023-07-31T08:32:54;21.90;70.70
44537;DHT22;30245;51.966;6.292;2023-07-31T08:35:20;21.90;70.70
44537;DHT22;30245;51.966;6.292;2023-07-31T08:37:45;21.90;70.70
44537;DHT22;30245;51.966;6.292;2023-07-31T08:40:11;21.90;70.70
44537;DHT22;30245;51.966;6.292;2023-07-31T08:42:52;21.90;70.60
44537;DHT22;30245;51.966;6.292;2023-07-31T08:45:19;21.90;70.70
44537;DHT22;30245;51.966;6.292;2023-07-31T08:47:47;21.90;70.70
44537;DHT22;30245;51.966;6.292;2023-07-31T08:50:13;21.90;70.90
44537;DHT22;30245;51.966;6.292;2023-07-31T08:52:39;21.90;70.90
44537;DHT22;30245;51.966;6.292;2023-07-31T08:55:06;21.90;70.70
44537;DHT22;30245;51.966;6.292;2023-07-31T08:57:32;21.90;71.10
44537;DHT22;30245;51.966;6.292;2023-07-31T09:00:00;21.80;71.20
44537;DHT22;30245;51.966;6.292;2023-07-31T09:02:31;21.80;71.50
44537;DHT22;30245;51.966;6.292;2023-07-31T09:05:00;21.90;71.50
44537;DHT22;30245;51.966;6.292;2023-07-31T09:07:26;21.90;71.30
44537;DHT22;30245;51.966;6.292;2023-07-31T09:09:52;22.00;71.50
44537;DHT22;30245;51.966;6.292;2023-07-31T09:12:18;21.90;71.60
44537;DHT22;30245;51.966;6.292;2023-07-31T09:14:45;22.00;71.60
44537;DHT22;30245;51.966;6.292;2023-07-31T09:17:11;22.10;71.40
44537;DHT22;30245;51.966;6.292;2023-07-31T09:19:37;22.10;71.10
44537;DHT22;30245;51.966;6.292;2023-07-31T09:22:04;22.10;71.00
44537;DHT22;30245;51.966;6.292;2023-07-31T09:24:32;22.10;71.10
44537;DHT22;30245;51.966;6.292;2023-07-31T09:26:59;22.10;71.00
44537;DHT22;30245;51.966;6.292;2023-07-31T09:29:26;22.10;71.20
44537;DHT22;30245;51.966;6.292;2023-07-31T09:31:52;22.10;71.10
44537;DHT22;30245;51.966;6.292;2023-07-31T09:34:18;22.20;71.10
44537;DHT22;30245;51.966;6.292;2023-07-31T09:36:45;22.10;71.30
44537;DHT22;30245;51.966;6.292;2023-07-31T09:39:12;22.00;71.60
44537;DHT22;30245;51.966;6.292;2023-07-31T09:41:39;21.90;72.30
44537;DHT22;30245;51.966;6.292;2023-07-31T09:44:05;22.00;71.60
44537;DHT22;30245;51.966;6.292;2023-07-31T09:46:31;22.00;71.50
44537;DHT22;30245;51.966;6.292;2023-07-31T09:49:10;22.00;71.60
44537;DHT22;30245;51.966;6.292;2023-07-31T09:51:41;21.90;71.70
44537;DHT22;30245;51.966;6.292;2023-07-31T09:54:14;21.90;71.70
44537;DHT22;30245;51.966;6.292;2023-07-31T09:56:45;22.00;71.60
44537;DHT22;30245;51.966;6.292;2023-07-31T09:59:15;22.00;71.50
44537;DHT22;30245;51.966;6.292;2023-07-31T10:01:42;22.00;71.50
44537;DHT22;30245;51.966;6.292;2023-07-31T10:04:09;22.00;71.50
44537;DHT22;30245;51.966;6.292;2023-07-31T10:06:36;22.00;71.40
44537;DHT22;30245;51.966;6.292;2023-07-31T10:09:06;22.00;71.30
44537;DHT22;30245;51.966;6.292;2023-07-31T10:11:34;22.00;71.30
44537;DHT22;30245;51.966;6.292;2023-07-31T10:14:05;22.10;71.20
44537;DHT22;30245;51.966;6.292;2023-07-31T10:16:31;22.10;71.10
44537;DHT22;30245;51.966;6.292;2023-07-31T10:18:58;22.00;71.10
44537;DHT22;30245;51.966;6.292;2023-07-31T10:21:24;22.00;71.30
44537;DHT22;30245;51.966;6.292;2023-07-31T10:23:50;22.10;71.40
44537;DHT22;30245;51.966;6.292;2023-07-31T10:26:19;22.10;71.20
44537;DHT22;30245;51.966;6.292;2023-07-31T10:28:47;22.10;71.10
44537;DHT22;30245;51.966;6.292;2023-07-31T10:31:13;22.20;70.90
44537;DHT22;30245;51.966;6.292;2023-07-31T10:33:40;22.20;70.90
44537;DHT22;30245;51.966;6.292;2023-07-31T10:36:18;22.20;70.70
44537;DHT22;30245;51.966;6.292;2023-07-31T10:38:44;22.30;70.70
44537;DHT22;30245;51.966;6.292;2023-07-31T10:41:10;22.30;70.50
44537;DHT22;30245;51.966;6.292;2023-07-31T10:43:37;22.40;70.50
44537;DHT22;30245;51.966;6.292;2023-07-31T10:46:07;22.30;70.40
44537;DHT22;30245;51.966;6.292;2023-07-31T10:48:35;22.40;70.30
44537;DHT22;30245;51.966;6.292;2023-07-31T10:51:12;22.40;70.20
44537;DHT22;30245;51.966;6.292;2023-07-31T10:53:39;22.50;70.10
44537;DHT22;30245;51.966;6.292;2023-07-31T10:56:10;22.60;69.90
44537;DHT22;30245;51.966;6.292;2023-07-31T10:58:44;22.60;69.90
44537;DHT22;30245;51.966;6.292;2023-07-31T11:01:09;22.60;69.80
44537;DHT22;30245;51.966;6.292;2023-07-31T11:03:49;22.60;69.90
44537;DHT22;30245;51.966;6.292;2023-07-31T11:06:17;22.70;70.30
44537;DHT22;30245;51.966;6.292;2023-07-31T11:08:45;22.90;69.30
44537;DHT22;30245;51.966;6.292;2023-07-31T11:11:13;22.90;69.10
44537;DHT22;30245;51.966;6.292;2023-07-31T11:13:48;23.00;69.00
44537;DHT22;30245;51.966;6.292;2023-07-31T11:16:24;23.00;69.00
44537;DHT22;30245;51.966;6.292;2023-07-31T11:18:50;23.10;68.90
44537;DHT22;30245;51.966;6.292;2023-07-31T11:21:24;23.30;68.60
44537;DHT22;30245;51.966;6.292;2023-07-31T11:23:56;23.40;68.30
44537;DHT22;30245;51.966;6.292;2023-07-31T11:26:23;23.50;68.00
44537;DHT22;30245;51.966;6.292;2023-07-31T11:28:50;23.60;67.60
44537;DHT22;30245;51.966;6.292;2023-07-31T11:31:16;23.50;67.80
44537;DHT22;30245;51.966;6.292;2023-07-31T11:33:42;23.50;67.80
44537;DHT22;30245;51.966;6.292;2023-07-31T11:36:19;23.60;67.70
44537;DHT22;30245;51.966;6.292;2023-07-31T11:38:45;23.60;67.70
44537;DHT22;30245;51.966;6.292;2023-07-31T11:41:13;23.70;67.50
44537;DHT22;30245;51.966;6.292;2023-07-31T11:43:39;23.60;67.40
44537;DHT22;30245;51.966;6.292;2023-07-31T11:46:05;23.70;67.40
44537;DHT22;30245;51.966;6.292;2023-07-31T11:48:36;23.70;67.30
44537;DHT22;30245;51.966;6.292;2023-07-31T11:51:08;23.70;67.30
44537;DHT22;30245;51.966;6.292;2023-07-31T11:53:38;23.60;67.50
44537;DHT22;30245;51.966;6.292;2023-07-31T11:56:07;23.50;67.60
44537;DHT22;30245;51.966;6.292;2023-07-31T11:58:35;23.40;67.60
44537;DHT22;30245;51.966;6.292;2023-07-31T12:01:02;23.40;68.00
44537;DHT22;30245;51.966;6.292;2023-07-31T12:03:28;23.40;68.00
44537;DHT22;30245;51.966;6.292;2023-07-31T12:05:54;23.30;67.80
44537;DHT22;30245;51.966;6.292;2023-07-31T12:08:22;23.30;68.10
44537;DHT22;30245;51.966;6.292;2023-07-31T12:10:50;23.30;67.90
44537;DHT22;30245;51.966;6.292;2023-07-31T12:13:22;23.30;68.00
44537;DHT22;30245;51.966;6.292;2023-07-31T12:15:48;23.40;68.00
44537;DHT22;30245;51.966;6.292;2023-07-31T12:18:17;23.40;67.70
44537;DHT22;30245;51.966;6.292;2023-07-31T12:20:46;23.30;67.90
44537;DHT22;30245;51.966;6.292;2023-07-31T12:23:19;23.40;68.20
44537;DHT22;30245;51.966;6.292;2023-07-31T12:26:10;23.40;67.80
44537;DHT22;30245;51.966;6.292;2023-07-31T12:28:49;23.50;67.60
44537;DHT22;30245;51.966;6.292;2023-07-31T12:31:18;23.60;67.50
44537;DHT22;30245;51.966;6.292;2023-07-31T12:33:45;23.50;67.50
44537;DHT22;30245;51.966;6.292;2023-07-31T12:36:20;23.40;67.30
44537;DHT22;30245;51.966;6.292;2023-07-31T12:38:45;23.40;67.60
44537;DHT22;30245;51.966;6.292;2023-07-31T12:41:12;23.50;67.60
44537;DHT22;30245;51.966;6.292;2023-07-31T12:43:39;23.60;67.20
44537;DHT22;30245;51.966;6.292;2023-07-31T12:46:06;23.60;67.10
44537;DHT22;30245;51.966;6.292;2023-07-31T12:48:33;23.70;67.10
44537;DHT22;30245;51.966;6.292;2023-07-31T12:50:59;23.70;67.00
44537;DHT22;30245;51.966;6.292;2023-07-31T12:53:24;23.70;66.90
44537;DHT22;30245;51.966;6.292;2023-07-31T12:55:50;23.70;67.10
44537;DHT22;30245;51.966;6.292;2023-07-31T12:58:16;23.80;67.10
44537;DHT22;30245;51.966;6.292;2023-07-31T13:00:41;23.80;67.00
44537;DHT22;30245;51.966;6.292;2023-07-31T13:03:08;23.80;66.80
44537;DHT22;30245;51.966;6.292;2023-07-31T13:05:33;23.80;66.90
44537;DHT22;30245;51.966;6.292;2023-07-31T13:07:59;23.80;66.90
44537;DHT22;30245;51.966;6.292;2023-07-31T13:10:25;23.80;67.00
44537;DHT22;30245;51.966;6.292;2023-07-31T13:12:52;23.80;66.90
44537;DHT22;30245;51.966;6.292;2023-07-31T13:15:18;23.90;66.60
44537;DHT22;30245;51.966;6.292;2023-07-31T13:17:43;23.90;66.50
44537;DHT22;30245;51.966;6.292;2023-07-31T13:20:09;23.90;66.50
44537;DHT22;30245;51.966;6.292;2023-07-31T13:22:35;24.00;66.60
44537;DHT22;30245;51.966;6.292;2023-07-31T13:25:00;24.00;66.40
44537;DHT22;30245;51.966;6.292;2023-07-31T13:27:26;24.00;66.50
44537;DHT22;30245;51.966;6.292;2023-07-31T13:29:52;24.00;66.30
44537;DHT22;30245;51.966;6.292;2023-07-31T13:32:18;24.00;66.00
44537;DHT22;30245;51.966;6.292;2023-07-31T13:34:45;24.00;66.20
44537;DHT22;30245;51.966;6.292;2023-07-31T13:37:10;24.10;66.10
44537;DHT22;30245;51.966;6.292;2023-07-31T13:39:36;24.00;65.90
44537;DHT22;30245;51.966;6.292;2023-07-31T13:42:03;24.00;65.90
44537;DHT22;30245;51.966;6.292;2023-07-31T13:44:28;24.00;66.10
44537;DHT22;30245;51.966;6.292;2023-07-31T13:46:54;24.00;66.20
44537;DHT22;30245;51.966;6.292;2023-07-31T13:49:20;24.10;66.20
44537;DHT22;30245;51.966;6.292;2023-07-31T13:51:45;24.20;66.10
44537;DHT22;30245;51.966;6.292;2023-07-31T13:54:11;24.20;66.00
44537;DHT22;30245;51.966;6.292;2023-07-31T13:56:37;24.10;66.20
44537;DHT22;30245;51.966;6.292;2023-07-31T13:59:03;24.00;66.40
44537;DHT22;30245;51.966;6.292;2023-07-31T14:01:29;23.90;66.50
44537;DHT22;30245;51.966;6.292;2023-07-31T14:03:55;23.90;66.40
44537;DHT22;30245;51.966;6.292;2023-07-31T14:06:21;23.80;66.60
44537;DHT22;30245;51.966;6.292;2023-07-31T14:08:46;23.80;66.80
44537;DHT22;30245;51.966;6.292;2023-07-31T14:11:12;23.80;66.80
44537;DHT22;30245;51.966;6.292;2023-07-31T14:13:37;23.90;66.90
44537;DHT22;30245;51.966;6.292;2023-07-31T14:16:03;23.90;66.50
44537;DHT22;30245;51.966;6.292;2023-07-31T14:18:29;24.00;66.50
44537;DHT22;30245;51.966;6.292;2023-07-31T14:20:54;24.00;66.40
44537;DHT22;30245;51.966;6.292;2023-07-31T14:23:20;23.90;66.30
44537;DHT22;30245;51.966;6.292;2023-07-31T14:25:46;23.90;66.60
44537;DHT22;30245;51.966;6.292;2023-07-31T14:28:12;23.80;66.70
44537;DHT22;30245;51.966;6.292;2023-07-31T14:30:38;23.70;66.80
44537;DHT22;30245;51.966;6.292;2023-07-31T14:33:03;23.70;67.20
44537;DHT22;30245;51.966;6.292;2023-07-31T14:35:29;23.70;67.20
44537;DHT22;30245;51.966;6.292;2023-07-31T14:37:54;23.70;67.70
44537;DHT22;30245;51.966;6.292;2023-07-31T14:40:20;23.80;66.90
44537;DHT22;30245;51.966;6.292;2023-07-31T14:42:46;23.80;66.90
44537;DHT22;30245;51.966;6.292;2023-07-31T14:45:11;23.80;66.80
44537;DHT22;30245;51.966;6.292;2023-07-31T14:47:37;23.90;66.60
44537;DHT22;30245;51.966;6.292;2023-07-31T14:50:03;23.90;66.60
44537;DHT22;30245;51.966;6.292;2023-07-31T14:52:29;23.80;66.80
44537;DHT22;30245;51.966;6.292;2023-07-31T14:54:55;23.80;66.90
44537;DHT22;30245;51.966;6.292;2023-07-31T14:57:20;23.80;66.90
44537;DHT22;30245;51.966;6.292;2023-07-31T14:59:46;23.80;67.00
44537;DHT22;30245;51.966;6.292;2023-07-31T15:02:12;23.80;67.00
44537;DHT22;30245;51.966;6.292;2023-07-31T15:04:38;23.70;67.20
44537;DHT22;30245;51.966;6.292;2023-07-31T15:07:04;23.60;67.60
44537;DHT22;30245;51.966;6.292;2023-07-31T15:09:30;23.50;68.20
44537;DHT22;30245;51.966;6.292;2023-07-31T15:11:56;23.30;68.50
44537;DHT22;30245;51.966;6.292;2023-07-31T15:14:23;23.30;68.70
44537;DHT22;30245;51.966;6.292;2023-07-31T15:16:48;23.30;68.70
44537;DHT22;30245;51.966;6.292;2023-07-31T15:19:14;23.30;68.80
44537;DHT22;30245;51.966;6.292;2023-07-31T15:21:41;23.30;68.80
44537;DHT22;30245;51.966;6.292;2023-07-31T15:24:06;23.30;68.90
44537;DHT22;30245;51.966;6.292;2023-07-31T15:26:32;23.20;69.00
44537;DHT22;30245;51.966;6.292;2023-07-31T15:29:03;23.20;69.10
44537;DHT22;30245;51.966;6.292;2023-07-31T15:31:31;23.30;69.10
44537;DHT22;30245;51.966;6.292;2023-07-31T15:33:57;23.30;69.60